createdAt,value
2018-05-02T00:00:35.992Z,957.66
2018-05-02T00:01:16.520Z,957.61
2018-05-02T00:01:57.050Z,957.62
2018-05-02T00:02:37.570Z,957.57
2018-05-02T00:03:18.101Z,957.61
2018-05-02T00:03:58.620Z,957.61
2018-05-02T00:04:39.142Z,957.6
2018-05-02T00:05:19.674Z,957.59
2018-05-02T00:06:00.206Z,957.65
2018-05-02T00:06:40.721Z,957.62
2018-05-02T00:07:21.240Z,957.6
2018-05-02T00:08:01.773Z,957.62
2018-05-02T00:08:42.308Z,957.62
2018-05-02T00:09:22.838Z,957.6
2018-05-02T00:10:03.362Z,957.65
2018-05-02T00:10:44.770Z,957.6
2018-05-02T00:11:25.293Z,957.65
2018-05-02T00:12:05.816Z,957.68
2018-05-02T00:12:46.348Z,957.69
2018-05-02T00:13:26.881Z,957.64
2018-05-02T00:14:07.405Z,957.69
2018-05-02T00:14:47.924Z,957.68
2018-05-02T00:15:28.453Z,957.66
2018-05-02T00:16:08.983Z,957.61
2018-05-02T00:16:49.508Z,957.59
2018-05-02T00:17:30.034Z,957.6
2018-05-02T00:18:10.617Z,957.54
2018-05-02T00:18:51.091Z,957.51
2018-05-02T00:19:31.621Z,957.52
2018-05-02T00:20:12.144Z,957.49
2018-05-02T00:20:53.641Z,957.46
2018-05-02T00:21:34.163Z,957.52
2018-05-02T00:22:14.692Z,957.5
2018-05-02T00:22:55.220Z,957.48
2018-05-02T00:23:35.730Z,957.47
2018-05-02T00:24:16.256Z,957.5
2018-05-02T00:24:56.784Z,957.49
2018-05-02T00:25:37.311Z,957.47
2018-05-02T00:26:17.843Z,957.49
2018-05-02T00:26:58.377Z,957.43
2018-05-02T00:27:38.896Z,957.44
2018-05-02T00:28:19.970Z,957.39
2018-05-02T00:28:59.946Z,957.38
2018-05-02T00:29:40.473Z,957.39
2018-05-02T00:30:22.470Z,957.34
2018-05-02T00:31:02.452Z,957.32
2018-05-02T00:31:42.978Z,957.3
2018-05-02T00:32:24.243Z,957.3
2018-05-02T00:33:04.771Z,957.27
2018-05-02T00:33:45.304Z,957.28
2018-05-02T00:34:25.832Z,957.25
2018-05-02T00:35:06.364Z,957.25
2018-05-02T00:35:46.893Z,957.26
2018-05-02T00:36:27.409Z,957.28
2018-05-02T00:37:07.936Z,957.27
2018-05-02T00:37:48.455Z,957.24
2018-05-02T00:38:29.970Z,957.24
2018-05-02T00:39:10.499Z,957.21
2018-05-02T00:39:51.032Z,957.2
2018-05-02T00:40:31.551Z,957.16
2018-05-02T00:41:12.988Z,957.17
2018-05-02T00:41:53.527Z,957.16
2018-05-02T00:42:34.054Z,957.17
2018-05-02T00:43:14.579Z,957.15
2018-05-02T00:43:55.657Z,957.15
2018-05-02T00:44:36.180Z,957.17
2018-05-02T00:45:16.703Z,957.14
2018-05-02T00:45:57.236Z,957.13
2018-05-02T00:46:37.792Z,957.15
2018-05-02T00:47:18.315Z,957.15
2018-05-02T00:47:58.844Z,957.09
2018-05-02T00:48:39.357Z,957.15
2018-05-02T00:49:19.881Z,957.1
2018-05-02T00:50:00.429Z,957.09
2018-05-02T00:50:40.927Z,957.04
2018-05-02T00:51:21.456Z,957.09
2018-05-02T00:52:02.009Z,957.08
2018-05-02T00:52:42.507Z,957.06
2018-05-02T00:53:23.971Z,957.11
2018-05-02T00:54:03.550Z,957.1
2018-05-02T00:54:44.072Z,957.11
2018-05-02T00:55:24.599Z,957.12
2018-05-02T00:56:05.116Z,957.11
2018-05-02T00:56:46.976Z,957.14
2018-05-02T00:57:27.219Z,957.12
2018-05-02T00:58:07.740Z,957.07
2018-05-02T00:58:48.261Z,957.08
2018-05-02T00:59:28.792Z,957.04
2018-05-02T01:00:09.312Z,957.07
2018-05-02T01:00:49.855Z,957.06
2018-05-02T01:01:30.387Z,957.09
2018-05-02T01:02:10.914Z,957.07
2018-05-02T01:02:51.453Z,957.06
2018-05-02T01:03:32.471Z,957.11
2018-05-02T01:04:13.030Z,957.08
2018-05-02T01:04:53.555Z,957.09
2018-05-02T01:05:34.078Z,957.14
2018-05-02T01:06:14.604Z,957.12
2018-05-02T01:06:55.124Z,957.2
2018-05-02T01:07:35.680Z,957.16
2018-05-02T01:08:16.915Z,957.14
2018-05-02T01:08:57.432Z,957.17
2018-05-02T01:09:37.956Z,957.15
2018-05-02T01:10:18.483Z,957.15
2018-05-02T01:10:59.005Z,957.22
2018-05-02T01:11:39.533Z,957.21
2018-05-02T01:12:20.057Z,957.21
2018-05-02T01:13:00.582Z,957.24
2018-05-02T01:13:41.104Z,957.22
2018-05-02T01:14:21.621Z,957.23
2018-05-02T01:15:02.150Z,957.25
2018-05-02T01:15:42.651Z,957.23
2018-05-02T01:16:24.078Z,957.19
2018-05-02T01:17:04.614Z,957.17
2018-05-02T01:17:45.140Z,957.16
2018-05-02T01:18:25.671Z,957.16
2018-05-02T01:19:06.191Z,957.11
2018-05-02T01:19:46.720Z,957.13
2018-05-02T01:20:27.228Z,957.09
2018-05-02T01:21:07.749Z,957.06
2018-05-02T01:21:48.301Z,957.02
2018-05-02T01:22:28.871Z,957.03
2018-05-02T01:23:09.395Z,957.04
2018-05-02T01:23:49.920Z,957.06
2018-05-02T01:24:30.447Z,957.02
2018-05-02T01:25:10.971Z,957.01
2018-05-02T01:25:51.489Z,957.02
2018-05-02T01:26:32.003Z,957.02
2018-05-02T01:27:12.519Z,957.01
2018-05-02T01:27:53.044Z,957.03
2018-05-02T01:28:34.480Z,957
2018-05-02T01:29:15.001Z,957.05
2018-05-02T01:29:56.299Z,957.01
2018-05-02T01:30:36.821Z,957.03
2018-05-02T01:31:17.347Z,957.03
2018-05-02T01:31:57.863Z,957.07
2018-05-02T01:32:38.942Z,957.06
2018-05-02T01:33:19.501Z,957.04
2018-05-02T01:34:00.008Z,957.08
2018-05-02T01:34:40.543Z,957.06
2018-05-02T01:35:21.063Z,957.05
2018-05-02T01:36:02.474Z,957.05
2018-05-02T01:36:42.099Z,957
2018-05-02T01:37:22.624Z,957.03
2018-05-02T01:38:03.153Z,957.04
2018-05-02T01:38:43.678Z,957.05
2018-05-02T01:39:24.198Z,957.02
2018-05-02T01:40:05.475Z,957.02
2018-05-02T01:40:45.252Z,957.05
2018-05-02T01:41:25.783Z,957.02
2018-05-02T01:42:06.297Z,957.05
2018-05-02T01:42:47.973Z,957.07
2018-05-02T01:43:27.879Z,957.1
2018-05-02T01:44:08.397Z,957.1
2018-05-02T01:44:48.925Z,957.15
2018-05-02T01:45:29.447Z,957.14
2018-05-02T01:46:09.990Z,957.17
2018-05-02T01:46:50.489Z,957.13
2018-05-02T01:47:30.995Z,957.19
2018-05-02T01:48:11.488Z,957.2
2018-05-02T01:48:51.995Z,957.23
2018-05-02T01:49:32.514Z,957.23
2018-05-02T01:50:13.034Z,957.21
2018-05-02T01:50:53.547Z,957.19
2018-05-02T01:51:34.077Z,957.27
2018-05-02T01:52:15.481Z,957.26
2018-05-02T01:52:55.115Z,957.25
2018-05-02T01:53:35.678Z,957.26
2018-05-02T01:54:16.214Z,957.21
2018-05-02T01:54:56.729Z,957.24
2018-05-02T01:55:37.257Z,957.28
2018-05-02T01:56:17.773Z,957.28
2018-05-02T01:56:58.974Z,957.24
2018-05-02T01:57:38.819Z,957.25
2018-05-02T01:58:19.360Z,957.3
2018-05-02T01:58:59.863Z,957.3
2018-05-02T01:59:40.388Z,957.29
2018-05-02T02:00:20.921Z,957.29
2018-05-02T02:01:01.456Z,957.29
2018-05-02T02:01:41.980Z,957.28
2018-05-02T02:02:22.530Z,957.29
2018-05-02T02:03:03.041Z,957.27
2018-05-02T02:03:43.572Z,957.22
2018-05-02T02:04:24.095Z,957.28
2018-05-02T02:05:04.612Z,957.24
2018-05-02T02:05:45.128Z,957.24
2018-05-02T02:06:25.653Z,957.25
2018-05-02T02:07:06.214Z,957.27
2018-05-02T02:07:46.740Z,957.22
2018-05-02T02:08:27.946Z,957.21
2018-05-02T02:09:08.500Z,957.14
2018-05-02T02:09:49.021Z,957.16
2018-05-02T02:10:29.548Z,957.12
2018-05-02T02:11:10.078Z,957.1
2018-05-02T02:11:51.251Z,957.12
2018-05-02T02:12:31.763Z,957.14
2018-05-02T02:13:13.986Z,957.13
2018-05-02T02:13:53.563Z,957.11
2018-05-02T02:14:34.083Z,957.1
2018-05-02T02:15:14.607Z,957.08
2018-05-02T02:15:55.130Z,957.07
2018-05-02T02:16:35.650Z,957.04
2018-05-02T02:17:16.171Z,957.03
2018-05-02T02:17:56.698Z,957.04
2018-05-02T02:18:37.231Z,957.01
2018-05-02T02:19:17.762Z,956.99
2018-05-02T02:19:58.282Z,957
2018-05-02T02:20:38.812Z,956.95
2018-05-02T02:21:21.478Z,956.98
2018-05-02T02:22:01.469Z,956.95
2018-05-02T02:22:41.989Z,956.96
2018-05-02T02:23:22.521Z,956.94
2018-05-02T02:24:03.044Z,956.96
2018-05-02T02:24:43.570Z,956.94
2018-05-02T02:25:24.096Z,956.95
2018-05-02T02:26:04.628Z,956.96
2018-05-02T02:26:45.146Z,957.01
2018-05-02T02:27:25.675Z,957.02
2018-05-02T02:28:06.204Z,957.03
2018-05-02T02:28:46.730Z,957.03
2018-05-02T02:29:27.265Z,957.03
2018-05-02T02:30:08.498Z,957.03
2018-05-02T02:30:48.327Z,957.05
2018-05-02T02:31:29.790Z,957.08
2018-05-02T02:32:10.303Z,957.05
2018-05-02T02:32:50.860Z,957.06
2018-05-02T02:33:31.978Z,957.07
2018-05-02T02:34:11.923Z,957.07
2018-05-02T02:34:52.981Z,957.04
2018-05-02T02:35:32.966Z,957.06
2018-05-02T02:36:13.485Z,957.05
2018-05-02T02:36:54.010Z,957.09
2018-05-02T02:37:35.481Z,957.11
2018-05-02T02:38:16.038Z,957.11
2018-05-02T02:38:56.552Z,957.12
2018-05-02T02:39:37.099Z,957.13
2018-05-02T02:40:18.484Z,957.13
2018-05-02T02:40:59.013Z,957.17
2018-05-02T02:41:39.546Z,957.15
2018-05-02T02:42:22.886Z,957.13
2018-05-02T02:43:03.402Z,957.19
2018-05-02T02:43:43.932Z,957.18
2018-05-02T02:44:24.447Z,957.18
2018-05-02T02:45:04.972Z,957.19
2018-05-02T02:45:45.501Z,957.2
2018-05-02T02:46:27.953Z,957.19
2018-05-02T02:47:08.480Z,957.18
2018-05-02T02:47:49.021Z,957.18
2018-05-02T02:48:29.544Z,957.15
2018-05-02T02:49:10.067Z,957.15
2018-05-02T02:49:50.579Z,957.09
2018-05-02T02:50:31.084Z,957.12
2018-05-02T02:51:11.571Z,957.1
2018-05-02T02:51:52.069Z,957.11
2018-05-02T02:52:32.543Z,957.13
2018-05-02T02:53:13.142Z,957.12
2018-05-02T02:53:53.616Z,957.11
2018-05-02T02:54:34.143Z,957.11
2018-05-02T02:55:15.196Z,957.09
2018-05-02T02:55:55.772Z,957.11
2018-05-02T02:56:36.278Z,957.05
2018-05-02T02:57:16.811Z,957.09
2018-05-02T02:57:57.325Z,957.05
2018-05-02T02:58:37.848Z,957.02
2018-05-02T02:59:18.371Z,957.06
2018-05-02T02:59:58.887Z,957.07
2018-05-02T03:00:39.436Z,957.05
2018-05-02T03:01:19.936Z,957.03
2018-05-02T03:02:00.425Z,957.05
2018-05-02T03:02:40.958Z,957.04
2018-05-02T03:03:21.463Z,957.06
2018-05-02T03:04:01.975Z,957.03
2018-05-02T03:04:42.533Z,957.07
2018-05-02T03:05:23.008Z,957.06
2018-05-02T03:06:03.508Z,957.08
2018-05-02T03:06:43.999Z,957.05
2018-05-02T03:07:24.561Z,957.07
2018-05-02T03:08:05.077Z,957.02
2018-05-02T03:08:45.596Z,957.04
2018-05-02T03:09:26.099Z,957.01
2018-05-02T03:10:06.608Z,957.06
2018-05-02T03:10:47.135Z,957
2018-05-02T03:11:27.649Z,957.02
2018-05-02T03:12:08.178Z,956.97
2018-05-02T03:12:48.681Z,956.98
2018-05-02T03:13:30.052Z,956.93
2018-05-02T03:14:10.564Z,956.92
2018-05-02T03:14:51.970Z,956.9
2018-05-02T03:15:32.445Z,956.85
2018-05-02T03:16:12.943Z,956.86
2018-05-02T03:16:53.469Z,956.81
2018-05-02T03:17:33.988Z,956.82
2018-05-02T03:18:14.506Z,956.79
2018-05-02T03:18:55.013Z,956.81
2018-05-02T03:19:35.556Z,956.73
2018-05-02T03:20:16.051Z,956.72
2018-05-02T03:20:56.572Z,956.74
2018-05-02T03:21:37.699Z,956.68
2018-05-02T03:22:18.197Z,956.71
2018-05-02T03:22:59.180Z,956.68
2018-05-02T03:23:39.698Z,956.65
2018-05-02T03:24:20.983Z,956.62
2018-05-02T03:25:00.925Z,956.62
2018-05-02T03:25:41.514Z,956.6
2018-05-02T03:26:22.368Z,956.58
2018-05-02T03:27:02.759Z,956.56
2018-05-02T03:27:43.223Z,956.55
2018-05-02T03:28:23.978Z,956.54
2018-05-02T03:29:04.513Z,956.5
2018-05-02T03:29:45.041Z,956.48
2018-05-02T03:30:26.491Z,956.46
2018-05-02T03:31:06.217Z,956.46
2018-05-02T03:31:46.888Z,956.47
2018-05-02T03:32:27.445Z,956.49
2018-05-02T03:33:07.980Z,956.46
2018-05-02T03:33:48.508Z,956.44
2018-05-02T03:34:29.372Z,956.43
2018-05-02T03:35:09.924Z,956.43
2018-05-02T03:35:50.449Z,956.4
2018-05-02T03:36:31.147Z,956.42
2018-05-02T03:37:11.735Z,956.4
2018-05-02T03:37:52.477Z,956.38
2018-05-02T03:38:32.815Z,956.43
2018-05-02T03:39:13.337Z,956.36
2018-05-02T03:39:53.869Z,956.37
2018-05-02T03:40:34.389Z,956.36
2018-05-02T03:41:14.918Z,956.33
2018-05-02T03:41:55.446Z,956.33
2018-05-02T03:42:35.971Z,956.29
2018-05-02T03:43:16.501Z,956.32
2018-05-02T03:43:57.437Z,956.32
2018-05-02T03:44:37.909Z,956.31
2018-05-02T03:45:18.435Z,956.33
2018-05-02T03:45:59.031Z,956.27
2018-05-02T03:46:39.543Z,956.28
2018-05-02T03:47:20.075Z,956.32
2018-05-02T03:48:00.601Z,956.28
2018-05-02T03:48:41.128Z,956.32
2018-05-02T03:49:24.484Z,956.25
2018-05-02T03:50:03.076Z,956.28
2018-05-02T03:50:43.595Z,956.3
2018-05-02T03:51:24.119Z,956.34
2018-05-02T03:52:04.647Z,956.34
2018-05-02T03:52:45.169Z,956.29
2018-05-02T03:53:25.672Z,956.28
2018-05-02T03:54:06.182Z,956.26
2018-05-02T03:54:46.722Z,956.29
2018-05-02T03:55:27.243Z,956.22
2018-05-02T03:56:07.770Z,956.22
2018-05-02T03:56:48.299Z,956.24
2018-05-02T03:57:28.812Z,956.24
2018-05-02T03:58:09.332Z,956.22
2018-05-02T03:58:49.856Z,956.23
2018-05-02T03:59:30.387Z,956.21
2018-05-02T04:00:10.912Z,956.23
2018-05-02T04:00:51.444Z,956.22
2018-05-02T04:01:31.967Z,956.22
2018-05-02T04:02:12.499Z,956.22
2018-05-02T04:02:53.025Z,956.19
2018-05-02T04:03:33.554Z,956.21
2018-05-02T04:04:14.090Z,956.22
2018-05-02T04:04:54.611Z,956.18
2018-05-02T04:05:35.135Z,956.16
2018-05-02T04:06:15.661Z,956.2
2018-05-02T04:06:56.190Z,956.24
2018-05-02T04:07:36.711Z,956.27
2018-05-02T04:08:17.249Z,956.24
2018-05-02T04:08:57.773Z,956.26
2018-05-02T04:09:38.300Z,956.27
2018-05-02T04:10:18.825Z,956.26
2018-05-02T04:10:59.343Z,956.24
2018-05-02T04:11:39.871Z,956.27
2018-05-02T04:12:20.397Z,956.29
2018-05-02T04:13:00.924Z,956.3
2018-05-02T04:13:41.457Z,956.32
2018-05-02T04:14:22.488Z,956.36
2018-05-02T04:15:02.490Z,956.36
2018-05-02T04:15:43.020Z,956.36
2018-05-02T04:16:23.547Z,956.38
2018-05-02T04:17:04.074Z,956.42
2018-05-02T04:17:44.599Z,956.41
2018-05-02T04:18:25.127Z,956.46
2018-05-02T04:19:05.654Z,956.48
2018-05-02T04:19:46.179Z,956.48
2018-05-02T04:20:26.696Z,956.46
2018-05-02T04:21:07.222Z,956.43
2018-05-02T04:21:47.737Z,956.43
2018-05-02T04:22:28.261Z,956.42
2018-05-02T04:23:08.787Z,956.44
2018-05-02T04:23:49.313Z,956.44
2018-05-02T04:24:29.840Z,956.43
2018-05-02T04:25:10.371Z,956.44
2018-05-02T04:25:50.892Z,956.45
2018-05-02T04:26:31.417Z,956.47
2018-05-02T04:27:11.947Z,956.46
2018-05-02T04:27:52.473Z,956.47
2018-05-02T04:28:33.053Z,956.49
2018-05-02T04:29:13.521Z,956.46
2018-05-02T04:29:54.051Z,956.48
2018-05-02T04:30:35.442Z,956.48
2018-05-02T04:31:15.971Z,956.49
2018-05-02T04:31:56.501Z,956.54
2018-05-02T04:32:37.026Z,956.54
2018-05-02T04:33:17.552Z,956.58
2018-05-02T04:33:58.089Z,956.57
2018-05-02T04:34:38.616Z,956.55
2018-05-02T04:35:19.145Z,956.53
2018-05-02T04:35:59.672Z,956.51
2018-05-02T04:36:40.199Z,956.48
2018-05-02T04:37:20.730Z,956.45
2018-05-02T04:38:01.250Z,956.44
2018-05-02T04:38:41.792Z,956.38
2018-05-02T04:39:22.302Z,956.34
2018-05-02T04:40:02.832Z,956.29
2018-05-02T04:40:43.989Z,956.27
2018-05-02T04:41:23.876Z,956.26
2018-05-02T04:42:04.404Z,956.25
2018-05-02T04:42:44.933Z,956.29
2018-05-02T04:43:25.460Z,956.35
2018-05-02T04:44:05.978Z,956.33
2018-05-02T04:44:49.492Z,956.38
2018-05-02T04:45:30.019Z,956.42
2018-05-02T04:46:11.369Z,956.4
2018-05-02T04:46:51.894Z,956.45
2018-05-02T04:47:32.419Z,956.43
2018-05-02T04:48:12.948Z,956.42
2018-05-02T04:48:53.479Z,956.42
2018-05-02T04:49:34.003Z,956.43
2018-05-02T04:50:14.527Z,956.35
2018-05-02T04:50:55.054Z,956.37
2018-05-02T04:51:35.566Z,956.32
2018-05-02T04:52:16.095Z,956.22
2018-05-02T04:52:57.492Z,956.21
2018-05-02T04:53:38.651Z,956.19
2018-05-02T04:54:19.903Z,956.14
2018-05-02T04:55:00.427Z,956.18
2018-05-02T04:55:40.958Z,956.24
2018-05-02T04:56:21.491Z,956.24
2018-05-02T04:57:02.013Z,956.26
2018-05-02T04:57:43.210Z,956.27
2018-05-02T04:58:23.737Z,956.23
2018-05-02T04:59:04.262Z,956.27
2018-05-02T04:59:44.788Z,956.26
2018-05-02T05:00:25.315Z,956.25
2018-05-02T05:01:05.835Z,956.24
2018-05-02T05:01:46.359Z,956.23
2018-05-02T05:02:26.901Z,956.2
2018-05-02T05:03:07.423Z,956.21
2018-05-02T05:03:49.500Z,956.19
2018-05-02T05:04:29.375Z,956.21
2018-05-02T05:05:09.907Z,956.22
2018-05-02T05:05:50.439Z,956.22
2018-05-02T05:06:31.044Z,956.2
2018-05-02T05:07:11.494Z,956.2
2018-05-02T05:07:52.015Z,956.27
2018-05-02T05:08:32.543Z,956.3
2018-05-02T05:09:13.075Z,956.31
2018-05-02T05:09:53.606Z,956.31
2018-05-02T05:10:34.135Z,956.28
2018-05-02T05:11:14.648Z,956.3
2018-05-02T05:11:55.176Z,956.3
2018-05-02T05:12:35.742Z,956.3
2018-05-02T05:13:16.230Z,956.33
2018-05-02T05:13:56.739Z,956.37
2018-05-02T05:14:37.268Z,956.35
2018-05-02T05:15:17.786Z,956.37
2018-05-02T05:15:58.309Z,956.38
2018-05-02T05:16:38.839Z,956.42
2018-05-02T05:17:19.363Z,956.45
2018-05-02T05:17:59.888Z,956.53
2018-05-02T05:18:40.412Z,956.56
2018-05-02T05:19:20.943Z,956.53
2018-05-02T05:20:01.455Z,956.53
2018-05-02T05:20:41.980Z,956.53
2018-05-02T05:21:22.511Z,956.52
2018-05-02T05:22:03.043Z,956.49
2018-05-02T05:22:43.572Z,956.48
2018-05-02T05:23:24.093Z,956.49
2018-05-02T05:24:04.627Z,956.53
2018-05-02T05:24:45.146Z,956.53
2018-05-02T05:25:25.678Z,956.59
2018-05-02T05:26:06.195Z,956.62
2018-05-02T05:26:46.720Z,956.69
2018-05-02T05:27:27.252Z,956.71
2018-05-02T05:28:07.838Z,956.69
2018-05-02T05:28:48.306Z,956.72
2018-05-02T05:29:28.836Z,956.72
2018-05-02T05:30:09.355Z,956.69
2018-05-02T05:30:49.890Z,956.69
2018-05-02T05:31:30.408Z,956.68
2018-05-02T05:32:10.925Z,956.69
2018-05-02T05:32:51.443Z,956.68
2018-05-02T05:33:31.973Z,956.65
2018-05-02T05:34:12.494Z,956.73
2018-05-02T05:34:53.026Z,956.62
2018-05-02T05:35:33.558Z,956.64
2018-05-02T05:36:14.091Z,956.58
2018-05-02T05:36:54.630Z,956.63
2018-05-02T05:37:35.155Z,956.57
2018-05-02T05:38:15.680Z,956.6
2018-05-02T05:38:56.210Z,956.6
2018-05-02T05:39:36.746Z,956.59
2018-05-02T05:40:17.302Z,956.59
2018-05-02T05:40:57.828Z,956.61
2018-05-02T05:41:38.355Z,956.61
2018-05-02T05:42:18.876Z,956.58
2018-05-02T05:42:59.405Z,956.59
2018-05-02T05:43:40.013Z,956.58
2018-05-02T05:44:20.457Z,956.58
2018-05-02T05:45:00.983Z,956.57
2018-05-02T05:45:41.514Z,956.59
2018-05-02T05:46:22.045Z,956.55
2018-05-02T05:47:03.499Z,956.59
2018-05-02T05:47:44.059Z,956.61
2018-05-02T05:48:24.590Z,956.57
2018-05-02T05:49:05.114Z,956.62
2018-05-02T05:49:45.642Z,956.61
2018-05-02T05:50:26.195Z,956.61
2018-05-02T05:51:06.731Z,956.57
2018-05-02T05:51:47.246Z,956.49
2018-05-02T05:52:27.762Z,956.48
2018-05-02T05:53:08.293Z,956.48
2018-05-02T05:53:48.828Z,956.46
2018-05-02T05:54:29.416Z,956.45
2018-05-02T05:55:09.897Z,956.45
2018-05-02T05:55:50.432Z,956.45
2018-05-02T05:56:30.960Z,956.43
2018-05-02T05:57:11.486Z,956.43
2018-05-02T05:57:52.018Z,956.36
2018-05-02T05:58:32.537Z,956.37
2018-05-02T05:59:13.062Z,956.31
2018-05-02T05:59:53.595Z,956.35
2018-05-02T06:00:34.121Z,956.34
2018-05-02T06:01:14.649Z,956.33
2018-05-02T06:01:55.181Z,956.36
2018-05-02T06:02:35.712Z,956.36
2018-05-02T06:03:16.236Z,956.38
2018-05-02T06:03:56.759Z,956.38
2018-05-02T06:04:37.291Z,956.34
2018-05-02T06:05:17.817Z,956.32
2018-05-02T06:05:58.354Z,956.31
2018-05-02T06:06:38.927Z,956.36
2018-05-02T06:07:19.425Z,956.4
2018-05-02T06:07:59.943Z,956.4
2018-05-02T06:08:41.000Z,956.36
2018-05-02T06:09:21.002Z,956.36
2018-05-02T06:10:01.532Z,956.37
2018-05-02T06:10:42.043Z,956.4
2018-05-02T06:11:23.377Z,956.37
2018-05-02T06:12:03.898Z,956.35
2018-05-02T06:12:44.502Z,956.32
2018-05-02T06:13:24.957Z,956.3
2018-05-02T06:14:05.485Z,956.3
2018-05-02T06:14:46.019Z,956.31
2018-05-02T06:15:26.550Z,956.28
2018-05-02T06:16:07.071Z,956.27
2018-05-02T06:16:47.597Z,956.29
2018-05-02T06:17:28.131Z,956.3
2018-05-02T06:18:08.678Z,956.3
2018-05-02T06:18:49.214Z,956.3
2018-05-02T06:19:29.722Z,956.31
2018-05-02T06:20:10.235Z,956.35
2018-05-02T06:20:50.776Z,956.34
2018-05-02T06:21:31.304Z,956.34
2018-05-02T06:22:11.824Z,956.3
2018-05-02T06:22:52.344Z,956.31
2018-05-02T06:23:32.859Z,956.3
2018-05-02T06:24:13.382Z,956.31
2018-05-02T06:24:53.926Z,956.31
2018-05-02T06:25:34.437Z,956.31
2018-05-02T06:26:15.021Z,956.26
2018-05-02T06:26:55.489Z,956.31
2018-05-02T06:27:36.026Z,956.3
2018-05-02T06:28:16.551Z,956.28
2018-05-02T06:28:57.085Z,956.24
2018-05-02T06:29:37.606Z,956.23
2018-05-02T06:30:18.134Z,956.24
2018-05-02T06:30:58.655Z,956.24
2018-05-02T06:31:39.210Z,956.23
2018-05-02T06:32:19.715Z,956.23
2018-05-02T06:33:00.230Z,956.28
2018-05-02T06:33:40.752Z,956.23
2018-05-02T06:34:21.261Z,956.28
2018-05-02T06:35:01.778Z,956.3
2018-05-02T06:35:42.294Z,956.25
2018-05-02T06:36:22.828Z,956.26
2018-05-02T06:37:03.357Z,956.26
2018-05-02T06:37:44.022Z,956.3
2018-05-02T06:38:24.381Z,956.23
2018-05-02T06:39:04.913Z,956.24
2018-05-02T06:39:45.439Z,956.24
2018-05-02T06:40:25.964Z,956.25
2018-05-02T06:41:06.497Z,956.24
2018-05-02T06:41:47.023Z,956.23
2018-05-02T06:42:27.538Z,956.22
2018-05-02T06:43:08.062Z,956.21
2018-05-02T06:43:48.584Z,956.22
2018-05-02T06:44:29.116Z,956.21
2018-05-02T06:45:09.639Z,956.18
2018-05-02T06:45:50.156Z,956.2
2018-05-02T06:46:30.683Z,956.14
2018-05-02T06:47:11.198Z,956.08
2018-05-02T06:47:51.735Z,956.09
2018-05-02T06:48:32.243Z,956.06
2018-05-02T06:49:12.838Z,956.1
2018-05-02T06:49:53.292Z,956.12
2018-05-02T06:50:33.816Z,956.12
2018-05-02T06:51:14.354Z,956.13
2018-05-02T06:51:54.887Z,956.16
2018-05-02T06:52:35.413Z,956.17
2018-05-02T06:53:15.934Z,956.17
2018-05-02T06:53:56.457Z,956.19
2018-05-02T06:54:37.062Z,956.13
2018-05-02T06:55:17.495Z,956.12
2018-05-02T06:55:58.026Z,956.11
2018-05-02T06:56:38.531Z,956.08
2018-05-02T06:57:19.048Z,956.12
2018-05-02T06:57:59.572Z,956.07
2018-05-02T06:58:40.108Z,956.11
2018-05-02T06:59:20.620Z,956.09
2018-05-02T07:00:01.141Z,956.12
2018-05-02T07:00:41.672Z,956.13
2018-05-02T07:01:22.198Z,956.19
2018-05-02T07:02:02.723Z,956.12
2018-05-02T07:02:43.249Z,956.15
2018-05-02T07:03:23.774Z,956.14
2018-05-02T07:04:04.307Z,956.17
2018-05-02T07:04:44.823Z,956.14
2018-05-02T07:05:25.332Z,956.17
2018-05-02T07:06:05.830Z,956.14
2018-05-02T07:06:46.358Z,956.18
2018-05-02T07:07:26.850Z,956.16
2018-05-02T07:08:07.380Z,956.17
2018-05-02T07:08:47.886Z,956.17
2018-05-02T07:09:28.407Z,956.15
2018-05-02T07:10:08.934Z,956.15
2018-05-02T07:10:49.441Z,956.11
2018-05-02T07:11:30.686Z,956.16
2018-05-02T07:12:11.228Z,956.16
2018-05-02T07:12:52.472Z,956.14
2018-05-02T07:13:33.034Z,956.14
2018-05-02T07:14:13.507Z,956.14
2018-05-02T07:14:54.044Z,956.13
2018-05-02T07:15:34.582Z,956.16
2018-05-02T07:16:15.114Z,956.16
2018-05-02T07:16:55.640Z,956.2
2018-05-02T07:17:36.151Z,956.25
2018-05-02T07:18:16.661Z,956.25
2018-05-02T07:18:57.182Z,956.3
2018-05-02T07:19:38.291Z,956.26
2018-05-02T07:20:18.820Z,956.27
2018-05-02T07:20:59.345Z,956.27
2018-05-02T07:21:39.870Z,956.22
2018-05-02T07:22:20.386Z,956.22
2018-05-02T07:23:00.910Z,956.22
2018-05-02T07:23:41.433Z,956.22
2018-05-02T07:24:21.951Z,956.2
2018-05-02T07:25:02.464Z,956.19
2018-05-02T07:25:42.994Z,956.22
2018-05-02T07:26:23.517Z,956.22
2018-05-02T07:27:04.053Z,956.25
2018-05-02T07:27:44.563Z,956.23
2018-05-02T07:28:25.094Z,956.22
2018-05-02T07:29:06.534Z,956.18
2018-05-02T07:29:47.098Z,956.21
2018-05-02T07:30:27.631Z,956.19
2018-05-02T07:31:08.183Z,956.15
2018-05-02T07:31:48.684Z,956.19
2018-05-02T07:32:29.223Z,956.15
2018-05-02T07:33:09.727Z,956.18
2018-05-02T07:33:50.261Z,956.12
2018-05-02T07:34:30.785Z,956.13
2018-05-02T07:35:11.310Z,956.16
2018-05-02T07:35:51.832Z,956.17
2018-05-02T07:36:32.365Z,956.12
2018-05-02T07:37:12.883Z,956.12
2018-05-02T07:37:53.414Z,956.11
2018-05-02T07:38:34.593Z,956.1
2018-05-02T07:39:14.473Z,956.13
2018-05-02T07:39:54.983Z,956.1
2018-05-02T07:40:35.516Z,956.11
2018-05-02T07:41:16.048Z,956.1
2018-05-02T07:41:56.584Z,956.11
2018-05-02T07:42:37.152Z,956.07
2018-05-02T07:43:17.617Z,956.07
2018-05-02T07:43:58.149Z,956.05
2018-05-02T07:44:38.684Z,956.04
2018-05-02T07:45:19.197Z,956.06
2018-05-02T07:45:59.756Z,956.04
2018-05-02T07:46:40.288Z,955.97
2018-05-02T07:47:20.806Z,956.03
2018-05-02T07:48:01.342Z,956.03
2018-05-02T07:48:41.918Z,956.02
2018-05-02T07:49:22.406Z,956.04
2018-05-02T07:50:02.944Z,956.02
2018-05-02T07:50:43.455Z,956.02
2018-05-02T07:51:23.991Z,956.03
2018-05-02T07:52:04.506Z,956
2018-05-02T07:52:45.041Z,956
2018-05-02T07:53:25.545Z,955.94
2018-05-02T07:54:06.075Z,955.99
2018-05-02T07:54:46.591Z,955.97
2018-05-02T07:55:27.117Z,955.97
2018-05-02T07:56:07.641Z,955.95
2018-05-02T07:56:48.177Z,955.99
2018-05-02T07:57:28.967Z,955.95
2018-05-02T07:58:09.484Z,955.97
2018-05-02T07:58:50.022Z,955.97
2018-05-02T07:59:30.555Z,955.97
2018-05-02T08:00:11.071Z,955.94
2018-05-02T08:00:51.625Z,955.95
2018-05-02T08:01:32.136Z,955.95
2018-05-02T08:02:12.653Z,955.93
2018-05-02T08:02:53.181Z,955.93
2018-05-02T08:03:33.716Z,955.9
2018-05-02T08:04:14.254Z,955.95
2018-05-02T08:04:54.789Z,955.91
2018-05-02T08:05:37.937Z,955.85
2018-05-02T08:06:18.466Z,955.87
2018-05-02T08:06:59.002Z,955.82
2018-05-02T08:07:39.532Z,955.87
2018-05-02T08:08:22.000Z,955.82
2018-05-02T08:09:02.528Z,955.84
2018-05-02T08:09:43.054Z,955.8
2018-05-02T08:10:23.570Z,955.81
2018-05-02T08:11:04.202Z,955.82
2018-05-02T08:11:44.613Z,955.79
2018-05-02T08:12:25.147Z,955.76
2018-05-02T08:13:05.669Z,955.75
2018-05-02T08:13:46.187Z,955.74
2018-05-02T08:14:26.724Z,955.73
2018-05-02T08:15:07.247Z,955.74
2018-05-02T08:15:47.777Z,955.75
2018-05-02T08:16:28.312Z,955.76
2018-05-02T08:17:08.845Z,955.76
2018-05-02T08:17:49.378Z,955.79
2018-05-02T08:18:30.537Z,955.8
2018-05-02T08:19:11.105Z,955.77
2018-05-02T08:19:52.537Z,955.8
2018-05-02T08:20:32.140Z,955.84
2018-05-02T08:21:12.665Z,955.85
2018-05-02T08:21:53.200Z,955.86
2018-05-02T08:22:33.745Z,955.9
2018-05-02T08:23:14.261Z,955.89
2018-05-02T08:23:54.792Z,955.92
2018-05-02T08:24:35.305Z,955.91
2018-05-02T08:25:16.539Z,955.91
2018-05-02T08:25:56.357Z,955.84
2018-05-02T08:26:36.891Z,955.83
2018-05-02T08:27:17.422Z,955.84
2018-05-02T08:27:57.957Z,955.83
2018-05-02T08:28:38.487Z,955.82